Kingston, Minnesota
Current Conditions -  °F | °C
As of 9:13 AM on Monday 24 Nov 2014 (Local Time) from KLJF Reporting Station
Unknown Precip Unknown Precip  
Wind Chill:   Ceiling: 2000
Heat Index: 18°   Visibility: 7mi
Dew Point: 14°   Wind: 22mph
Humidity: 86%   Direction: 310°NW
Pressure: 29.49"   Gusts: 28mph
Location:  45.1075°N, 94.3443°W
Report Text: KLJF 241513Z AUTO 31019G24KT 7SM UP OVC020 M08/M10 A2949 RMK AO2
Loading
Personal Weather Stations






























Interactive Weather Map New forecast layout! Learn more

10-Day Weather Forecast

Advertisements
Track Severe Weather on mobile